Time;durP1;ratioP1;P1;durP2;ratioP2;P2;SDS_P1;SDS_P2;PMS_P1;PMS_P2;Temp;Humidity;BMP_temperature;BMP_pressure;BME280_temperature;BME280_humidity;BME280_pressure;Samples;Min_cycle;Max_cycle;Signal;HPM_P1;HPM_P2
2023/07/07 00:00:34;;;;;;;3.20;2.15;;;20.80;96.10;;;;;;5011856;28;20022;-39
2023/07/07 00:03:00;;;;;;;3.40;2.10;;;20.80;96.10;;;;;;4995424;28;20385;-40
2023/07/07 00:05:26;;;;;;;3.95;1.88;;;20.80;96.10;;;;;;5012211;28;20045;-41
2023/07/07 00:07:52;;;;;;;2.95;1.77;;;20.80;96.00;;;;;;5012043;28;20032;-38
2023/07/07 00:10:18;;;;;;;4.25;2.00;;;20.80;96.00;;;;;;5011644;28;20033;-40
2023/07/07 00:12:45;;;;;;;2.70;1.98;;;20.80;96.00;;;;;;5011883;28;20132;-40
2023/07/07 00:15:12;;;;;;;3.50;1.95;;;20.80;96.00;;;;;;5011882;28;20045;-38
2023/07/07 00:17:41;;;;;;;2.92;1.88;;;20.80;95.90;;;;;;5011914;28;20030;-39
2023/07/07 00:20:12;;;;;;;5.78;1.98;;;20.80;96.10;;;;;;5011549;28;20038;-40
2023/07/07 00:22:37;;;;;;;2.50;1.77;;;20.80;96.10;;;;;;5011831;28;20025;-39
2023/07/07 00:25:05;;;;;;;2.72;2.05;;;20.80;96.10;;;;;;5011575;28;20034;-40
2023/07/07 00:27:30;;;;;;;2.65;1.88;;;20.90;96.20;;;;;;5012932;28;20060;-37
2023/07/07 00:29:56;;;;;;;2.63;1.73;;;20.80;96.00;;;;;;4993758;28;20057;-38
2023/07/07 00:32:22;;;;;;;2.83;1.83;;;20.80;96.00;;;;;;5012193;28;20031;-39
2023/07/07 00:34:48;;;;;;;4.10;1.90;;;20.80;96.00;;;;;;5013015;28;20030;-39
2023/07/07 00:37:14;;;;;;;3.72;2.10;;;20.80;96.50;;;;;;5012540;28;20083;-40
2023/07/07 00:39:40;;;;;;;2.53;1.80;;;20.80;96.10;;;;;;5012242;28;20030;-38
2023/07/07 00:42:05;;;;;;;3.22;2.03;;;20.80;96.10;;;;;;5011580;28;20030;-38
2023/07/07 00:45:20;;;;;;;3.03;1.90;;;20.80;96.00;;;;;;5011446;28;20041;-40
2023/07/07 00:48:01;;;;;;;4.35;2.13;;;20.80;95.90;;;;;;4990193;28;20046;-40
2023/07/07 00:50:32;;;;;;;3.38;1.83;;;20.80;96.00;;;;;;5011111;28;20080;-39
2023/07/07 00:52:57;;;;;;;3.85;2.00;;;20.80;95.90;;;;;;5011377;28;20033;-38
2023/07/07 00:55:38;;;;;;;3.58;1.70;;;20.80;96.00;;;;;;5011793;28;20096;-39
2023/07/07 00:58:07;;;;;;;2.67;2.03;;;20.80;96.20;;;;;;5012001;28;20261;-39
2023/07/07 01:00:35;;;;;;;2.63;2.13;;;20.80;96.10;;;;;;5011131;28;20515;-39
2023/07/07 01:03:08;;;;;;;2.83;2.08;;;20.70;95.90;;;;;;5011369;28;20026;-42
2023/07/07 01:05:37;;;;;;;3.88;2.03;;;20.70;95.90;;;;;;5011246;28;20083;-39
2023/07/07 01:08:06;;;;;;;4.72;2.05;;;20.80;96.10;;;;;;5011301;28;20017;-38
2023/07/07 01:10:32;;;;;;;2.45;1.92;;;20.70;96.00;;;;;;5010897;28;20385;-39
2023/07/07 01:12:58;;;;;;;4.03;2.10;;;20.70;96.00;;;;;;5011705;28;20484;-40
2023/07/07 01:15:28;;;;;;;3.05;1.98;;;20.70;95.90;;;;;;5011409;28;20082;-39
2023/07/07 01:18:07;;;;;;;3.10;1.75;;;20.70;95.90;;;;;;5011814;28;20022;-40
2023/07/07 01:20:46;;;;;;;2.30;1.80;;;20.70;95.90;;;;;;5011184;28;20501;-40
2023/07/07 01:23:49;;;;;;;2.35;1.70;;;20.70;95.90;;;;;;5011329;28;20401;-38
2023/07/07 01:26:45;;;;;;;3.53;2.13;;;20.70;96.00;;;;;;5011181;28;20033;-39
2023/07/07 01:29:29;;;;;;;2.25;2.00;;;20.70;95.80;;;;;;5010972;28;20493;-40
2023/07/07 01:32:11;;;;;;;3.70;2.15;;;20.70;95.80;;;;;;5011126;28;20038;-39
2023/07/07 01:34:38;;;;;;;3.20;1.88;;;20.70;95.90;;;;;;5011042;28;20030;-40
2023/07/07 01:37:04;;;;;;;3.17;2.30;;;20.70;95.90;;;;;;5011053;28;20045;-38
2023/07/07 01:39:30;;;;;;;3.78;1.95;;;20.70;95.90;;;;;;5010779;28;20452;-40
2023/07/07 01:42:07;;;;;;;3.58;2.20;;;20.70;95.80;;;;;;5010910;28;20025;-40
2023/07/07 01:45:01;;;;;;;2.97;2.05;;;20.70;95.80;;;;;;5010853;28;20037;-40
2023/07/07 01:47:36;;;;;;;4.15;2.20;;;20.70;95.80;;;;;;5011131;28;20026;-39
2023/07/07 01:50:10;;;;;;;2.78;2.00;;;20.70;95.90;;;;;;5010633;28;20034;-39
2023/07/07 01:52:39;;;;;;;;;;;20.70;96.20;;;;;;5011718;28;20032;-39
2023/07/07 01:55:16;;;;;;;4.22;2.08;;;20.70;95.80;;;;;;5010808;28;20307;-41
2023/07/07 01:57:44;;;;;;;3.72;2.10;;;20.70;95.80;;;;;;5011040;28;20160;-39
2023/07/07 02:00:12;;;;;;;3.13;2.03;;;20.70;96.10;;;;;;5012375;28;20101;-39
2023/07/07 02:02:38;;;;;;;3.53;2.10;;;20.70;95.80;;;;;;5014240;28;20033;-38
2023/07/07 02:05:04;;;;;;;2.30;1.90;;;20.70;96.10;;;;;;5014064;28;20109;-38
2023/07/07 02:07:29;;;;;;;3.53;2.10;;;20.70;95.70;;;;;;5014172;28;20105;-39
2023/07/07 02:09:55;;;;;;;2.72;1.92;;;20.70;95.70;;;;;;5013887;28;20097;-40
2023/07/07 02:12:21;;;;;;;3.83;1.90;;;20.70;95.70;;;;;;5014177;28;20018;-40
2023/07/07 02:14:47;;;;;;;3.33;1.90;;;20.70;95.70;;;;;;5014063;28;20030;-38
2023/07/07 02:17:15;;;;;;;3.42;1.70;;;20.70;95.80;;;;;;5015153;28;20014;-38
2023/07/07 02:19:41;;;;;;;3.05;2.00;;;20.70;95.90;;;;;;5013622;28;20033;-38
2023/07/07 02:22:08;;;;;;;2.15;1.65;;;20.60;95.80;;;;;;5013888;28;20026;-40
2023/07/07 02:24:33;;;;;;;3.40;2.00;;;20.70;95.80;;;;;;5013706;28;20029;-39
2023/07/07 02:26:59;;;;;;;3.25;2.03;;;20.60;95.70;;;;;;5013889;28;20092;-39
2023/07/07 02:29:25;;;;;;;2.42;1.88;;;20.60;95.60;;;;;;5013639;28;20037;-40
2023/07/07 02:31:50;;;;;;;2.85;1.80;;;20.60;95.70;;;;;;5013783;28;20034;-40
2023/07/07 02:34:16;;;;;;;4.47;2.10;;;20.60;95.70;;;;;;5013537;28;20030;-38
2023/07/07 02:36:41;;;;;;;3.75;2.17;;;20.60;95.60;;;;;;5013665;28;20033;-40
2023/07/07 02:39:07;;;;;;;2.42;1.70;;;20.60;95.60;;;;;;5013624;28;20062;-40
2023/07/07 02:41:33;;;;;;;3.65;2.08;;;20.60;95.50;;;;;;5013558;28;20026;-40
2023/07/07 02:43:59;;;;;;;4.45;2.00;;;20.60;95.60;;;;;;5013386;28;20026;-38
2023/07/07 02:46:24;;;;;;;3.70;1.90;;;20.60;95.60;;;;;;5013584;28;20038;-38
2023/07/07 02:48:50;;;;;;;2.88;2.17;;;20.60;95.60;;;;;;5013190;28;20088;-39
2023/07/07 02:51:16;;;;;;;2.95;2.08;;;20.60;95.60;;;;;;5013326;28;20108;-41
2023/07/07 02:53:41;;;;;;;3.15;1.92;;;20.60;95.60;;;;;;5013778;28;20038;-38
2023/07/07 02:56:07;;;;;;;3.00;2.00;;;20.60;95.60;;;;;;5013394;28;20022;-40
2023/07/07 02:58:33;;;;;;;2.70;2.00;;;20.60;95.50;;;;;;4995793;28;20030;-41
2023/07/07 03:01:10;;;;;;;5.13;1.85;;;20.60;95.50;;;;;;5013110;28;20036;-40
2023/07/07 03:03:37;;;;;;;3.53;2.10;;;20.60;95.50;;;;;;5013038;28;20198;-40
2023/07/07 03:06:05;;;;;;;2.90;2.03;;;20.60;95.50;;;;;;5013087;28;20029;-40
2023/07/07 03:08:31;;;;;;;3.33;2.00;;;20.60;95.60;;;;;;5013312;28;20129;-41
2023/07/07 03:10:57;;;;;;;3.97;2.10;;;20.60;95.50;;;;;;5011761;28;20050;-39
2023/07/07 03:13:22;;;;;;;2.35;1.70;;;20.60;95.60;;;;;;5012901;28;20061;-40
2023/07/07 03:15:48;;;;;;;5.25;2.30;;;20.60;95.60;;;;;;5012855;28;20018;-40
2023/07/07 03:18:14;;;;;;;3.17;2.00;;;20.60;95.50;;;;;;5012898;28;20097;-39
2023/07/07 03:20:49;;;;;;;4.03;2.05;;;20.50;95.40;;;;;;5012566;28;20249;-42
2023/07/07 03:23:15;;;;;;;5.07;1.92;;;20.60;95.50;;;;;;5012767;28;20026;-40
2023/07/07 03:25:41;;;;;;;2.70;2.08;;;20.50;95.40;;;;;;5012740;28;20029;-39
2023/07/07 03:28:08;;;;;;;4.22;1.92;;;20.50;95.40;;;;;;5012772;28;20060;-39
2023/07/07 03:30:34;;;;;;;3.95;1.95;;;20.50;95.40;;;;;;5012350;28;20026;-38
2023/07/07 03:33:00;;;;;;;3.35;2.38;;;20.50;95.40;;;;;;5012825;28;20022;-40
2023/07/07 03:35:26;;;;;;;4.35;1.90;;;20.50;95.60;;;;;;5012671;28;20022;-40
2023/07/07 03:37:52;;;;;;;2.75;1.88;;;20.50;95.40;;;;;;5012542;28;20033;-38
2023/07/07 03:40:17;;;;;;;3.08;1.95;;;20.50;95.50;;;;;;5012338;28;20041;-39
2023/07/07 03:42:43;;;;;;;5.63;2.15;;;20.50;95.40;;;;;;5012499;28;20481;-40
2023/07/07 03:45:10;;;;;;;2.67;1.88;;;20.50;95.40;;;;;;5012201;28;20029;-38
2023/07/07 03:47:35;;;;;;;3.00;1.90;;;20.50;95.40;;;;;;5012374;28;20029;-40
2023/07/07 03:50:01;;;;;;;4.80;2.50;;;20.50;95.40;;;;;;5012466;28;20056;-39
2023/07/07 03:52:26;;;;;;;3.20;1.85;;;20.50;95.40;;;;;;5013057;28;20088;-39
2023/07/07 03:54:52;;;;;;;4.40;2.08;;;20.50;95.40;;;;;;5012530;28;20057;-38
2023/07/07 03:57:18;;;;;;;5.57;2.15;;;20.50;95.40;;;;;;5012174;28;20041;-39
2023/07/07 03:59:44;;;;;;;5.68;2.10;;;20.50;95.40;;;;;;5011839;28;20072;-40
2023/07/07 04:02:09;;;;;;;2.92;1.70;;;20.50;95.40;;;;;;5012388;28;20041;-39
2023/07/07 04:04:35;;;;;;;3.50;2.05;;;20.50;95.50;;;;;;5012278;28;20030;-39
2023/07/07 04:07:00;;;;;;;3.67;2.20;;;20.50;95.40;;;;;;5011982;28;20477;-40
2023/07/07 04:09:26;;;;;;;3.30;1.90;;;20.50;95.40;;;;;;5011736;28;20022;-40
2023/07/07 04:11:52;;;;;;;3.42;2.13;;;20.50;95.50;;;;;;5011988;28;20021;-39
2023/07/07 04:14:19;;;;;;;3.72;2.20;;;20.50;95.40;;;;;;5012206;28;20026;-39
2023/07/07 04:16:45;;;;;;;3.50;2.00;;;20.50;95.40;;;;;;5011898;28;20033;-40
2023/07/07 04:19:10;;;;;;;4.72;2.00;;;20.50;95.80;;;;;;5010207;28;20481;-40
2023/07/07 04:21:36;;;;;;;3.17;1.90;;;20.50;95.50;;;;;;5012088;28;20176;-40
2023/07/07 04:24:03;;;;;;;4.18;2.13;;;20.50;95.50;;;;;;5011365;28;20477;-39
2023/07/07 04:26:30;;;;;;;3.08;1.80;;;20.50;95.60;;;;;;5011844;28;20034;-39
2023/07/07 04:28:58;;;;;;;8.95;2.30;;;20.50;95.50;;;;;;5012060;28;20026;-39
2023/07/07 04:31:26;;;;;;;3.17;1.90;;;20.50;95.40;;;;;;5011625;28;20102;-39
2023/07/07 04:33:53;;;;;;;3.88;1.98;;;20.50;95.40;;;;;;5011566;28;20532;-39
2023/07/07 04:36:20;;;;;;;4.05;2.33;;;20.50;95.40;;;;;;5011575;28;20026;-39
2023/07/07 04:38:46;;;;;;;4.55;1.90;;;20.50;95.40;;;;;;5011458;28;20033;-40
2023/07/07 04:41:23;;;;;;;5.07;2.00;;;20.50;95.40;;;;;;5011228;28;20026;-39
2023/07/07 04:43:54;;;;;;;5.57;2.20;;;20.50;95.50;;;;;;5011441;28;20080;-39
2023/07/07 04:46:33;;;;;;;3.22;2.10;;;20.50;95.50;;;;;;5011876;28;20697;-40
2023/07/07 04:48:59;;;;;;;3.03;1.88;;;20.50;95.50;;;;;;5011213;28;20062;-40
2023/07/07 04:51:25;;;;;;;2.80;2.00;;;20.50;95.50;;;;;;5011462;28;20029;-39
2023/07/07 04:53:51;;;;;;;3.17;2.22;;;20.40;95.50;;;;;;5011231;28;20117;-39
2023/07/07 04:56:20;;;;;;;3.42;1.75;;;20.50;95.50;;;;;;5011553;28;20026;-39
2023/07/07 04:58:48;;;;;;;3.08;2.00;;;20.50;95.50;;;;;;5011630;28;20309;-40
2023/07/07 05:01:21;;;;;;;2.40;1.83;;;20.50;95.50;;;;;;5011604;28;20412;-39
2023/07/07 05:03:51;;;;;;;3.35;2.10;;;20.50;95.50;;;;;;5011246;28;20029;-39
2023/07/07 05:06:18;;;;;;;3.70;2.03;;;20.50;95.60;;;;;;5011755;28;20058;-40
2023/07/07 05:08:43;;;;;;;2.80;2.10;;;20.50;95.60;;;;;;5012399;28;20513;-39
2023/07/07 05:11:11;;;;;;;3.03;1.90;;;20.50;95.70;;;;;;5011279;28;20037;-39
2023/07/07 05:13:37;;;;;;;2.70;1.98;;;20.50;95.70;;;;;;5011169;28;20026;-40
2023/07/07 05:16:07;;;;;;;2.78;1.90;;;20.50;95.70;;;;;;5011300;28;20036;-39
2023/07/07 05:18:33;;;;;;;5.75;2.17;;;20.40;95.70;;;;;;5012496;28;20022;-39
2023/07/07 05:20:59;;;;;;;3.25;1.88;;;20.50;95.90;;;;;;5010805;28;20121;-38
2023/07/07 05:23:25;;;;;;;3.08;2.20;;;20.50;95.90;;;;;;5011174;28;20504;-40
2023/07/07 05:25:51;;;;;;;3.22;2.08;;;20.50;95.80;;;;;;5011703;28;20085;-40
2023/07/07 05:28:18;;;;;;;5.30;2.28;;;20.40;95.80;;;;;;5011589;28;20072;-39
2023/07/07 05:30:43;;;;;;;3.30;2.03;;;20.50;95.80;;;;;;5010843;28;20390;-39
2023/07/07 05:33:09;;;;;;;3.10;1.85;;;20.50;95.90;;;;;;5011217;28;20029;-39
2023/07/07 05:35:35;;;;;;;2.85;2.10;;;20.40;95.90;;;;;;5013345;28;20034;-39
2023/07/07 05:38:01;;;;;;;4.30;2.03;;;20.50;96.00;;;;;;5014848;28;20026;-40
2023/07/07 05:40:27;;;;;;;3.28;1.95;;;20.50;96.00;;;;;;5014600;28;20026;-38
2023/07/07 05:42:53;;;;;;;2.20;1.60;;;20.50;96.30;;;;;;5014658;28;20389;-39
2023/07/07 05:45:19;;;;;;;2.47;1.90;;;20.50;96.00;;;;;;5014628;28;20103;-39
2023/07/07 05:47:45;;;;;;;2.83;1.92;;;20.50;96.00;;;;;;5014711;28;20038;-39
2023/07/07 05:50:11;;;;;;;2.85;1.92;;;20.50;96.10;;;;;;5014154;28;20113;-40
2023/07/07 05:52:36;;;;;;;2.92;1.80;;;20.50;96.20;;;;;;5014587;28;20036;-40
2023/07/07 05:55:03;;;;;;;2.85;1.73;;;20.50;96.10;;;;;;5014429;28;20393;-39
2023/07/07 05:57:29;;;;;;;4.00;2.15;;;20.50;96.20;;;;;;5015607;28;20021;-39
2023/07/07 05:59:55;;;;;;;3.30;1.95;;;20.50;96.10;;;;;;5014157;28;20042;-40
2023/07/07 06:02:21;;;;;;;3.85;1.88;;;20.50;96.10;;;;;;5016113;28;20037;-39
2023/07/07 06:04:47;;;;;;;2.15;1.63;;;20.50;96.20;;;;;;5015318;28;20296;-39
2023/07/07 06:07:13;;;;;;;2.85;1.77;;;20.50;96.20;;;;;;5014549;28;20071;-40
2023/07/07 06:09:38;;;;;;;2.22;1.60;;;20.50;96.20;;;;;;5013961;28;20040;-38
2023/07/07 06:12:05;;;;;;;4.35;2.30;;;20.50;96.20;;;;;;5014279;28;20247;-38
2023/07/07 06:14:31;;;;;;;2.00;1.60;;;20.50;96.20;;;;;;5014022;28;20105;-40
2023/07/07 06:16:56;;;;;;;4.15;2.00;;;20.50;96.20;;;;;;5014099;28;20529;-40
2023/07/07 06:19:22;;;;;;;2.08;1.80;;;20.50;96.20;;;;;;5013550;28;20113;-40
2023/07/07 06:21:47;;;;;;;4.53;1.88;;;20.50;96.20;;;;;;5014139;28;20113;-40
2023/07/07 06:24:13;;;;;;;3.03;1.88;;;20.50;96.20;;;;;;5014977;28;20025;-40
2023/07/07 06:26:39;;;;;;;2.53;1.75;;;20.50;96.20;;;;;;5013878;28;20033;-40
2023/07/07 06:29:04;;;;;;;2.55;2.05;;;20.50;96.20;;;;;;5013632;28;20129;-39
2023/07/07 06:31:30;;;;;;;2.50;2.00;;;20.50;96.20;;;;;;5013733;28;20559;-39
2023/07/07 06:33:56;;;;;;;4.15;2.20;;;20.50;96.20;;;;;;5013848;28;20505;-39
2023/07/07 06:36:22;;;;;;;4.75;2.13;;;20.50;96.20;;;;;;5014117;28;20412;-39
2023/07/07 06:38:47;;;;;;;2.38;1.70;;;20.50;96.20;;;;;;5013548;28;20018;-39
2023/07/07 06:41:17;;;;;;;2.63;1.80;;;20.50;96.10;;;;;;5013641;28;20037;-39
2023/07/07 06:43:43;;;;;;;3.50;1.88;;;20.50;96.10;;;;;;5014505;28;20030;-39
2023/07/07 06:46:11;;;;;;;2.60;1.75;;;20.50;96.10;;;;;;5013429;28;20032;-40
2023/07/07 06:48:37;;;;;;;3.15;1.90;;;20.50;96.10;;;;;;5013460;28;20033;-39
2023/07/07 06:51:02;;;;;;;2.22;1.85;;;20.50;96.10;;;;;;5013213;28;20030;-40
2023/07/07 06:53:28;;;;;;;2.58;1.73;;;20.50;96.10;;;;;;5013357;28;20022;-40
2023/07/07 06:55:53;;;;;;;3.65;2.13;;;20.50;96.10;;;;;;5014429;28;20028;-41
2023/07/07 06:58:20;;;;;;;3.80;2.10;;;20.50;96.10;;;;;;5013754;28;20523;-39
2023/07/07 07:00:46;;;;;;;3.60;1.92;;;20.50;96.10;;;;;;5012977;28;20030;-39
2023/07/07 07:03:12;;;;;;;2.97;2.00;;;20.50;96.10;;;;;;5013157;28;20139;-40
2023/07/07 07:05:38;;;;;;;2.97;1.98;;;20.50;96.10;;;;;;5013329;28;20057;-40
2023/07/07 07:08:04;;;;;;;2.30;1.98;;;20.50;96.10;;;;;;5013373;28;20382;-40
2023/07/07 07:10:30;;;;;;;2.88;2.20;;;20.50;96.10;;;;;;5012653;28;20079;-41
2023/07/07 07:12:55;;;;;;;2.30;1.70;;;20.60;96.10;;;;;;5013147;28;20121;-38
2023/07/07 07:15:21;;;;;;;2.38;1.90;;;20.60;96.10;;;;;;5012844;28;20474;-39
2023/07/07 07:17:47;;;;;;;2.65;1.73;;;20.60;96.10;;;;;;5013444;28;20105;-39
2023/07/07 07:20:14;;;;;;;2.28;1.75;;;20.60;96.10;;;;;;5012666;28;20117;-39
2023/07/07 07:22:40;;;;;;;1.95;1.60;;;20.60;96.10;;;;;;5012923;28;20037;-40
2023/07/07 07:25:07;;;;;;;2.80;2.00;;;20.60;96.10;;;;;;5012726;28;20026;-40
2023/07/07 07:27:33;;;;;;;3.05;2.10;;;20.60;96.10;;;;;;5012676;28;20436;-39
2023/07/07 07:29:58;;;;;;;2.75;1.90;;;20.60;96.10;;;;;;5012258;28;20473;-40
2023/07/07 07:32:24;;;;;;;3.05;1.77;;;20.60;96.10;;;;;;5012700;28;20345;-39
2023/07/07 07:34:49;;;;;;;3.10;2.03;;;20.60;96.10;;;;;;5011128;28;20477;-38
2023/07/07 07:37:15;;;;;;;1.88;1.65;;;20.60;96.10;;;;;;5012827;28;20096;-39
2023/07/07 07:39:41;;;;;;;3.25;1.70;;;20.60;96.10;;;;;;5012340;28;20033;-41
2023/07/07 07:42:07;;;;;;;2.45;1.67;;;20.60;96.10;;;;;;5012466;28;20037;-40
2023/07/07 07:44:33;;;;;;;1.55;1.38;;;20.60;96.10;;;;;;5012223;28;20088;-39
2023/07/07 07:46:59;;;;;;;3.13;1.70;;;20.60;96.40;;;;;;5012403;28;20033;-38
2023/07/07 07:49:26;;;;;;;2.92;1.80;;;20.60;96.10;;;;;;5012089;28;20061;-40
2023/07/07 07:51:52;;;;;;;2.88;1.70;;;20.60;96.10;;;;;;5012914;28;20032;-40
2023/07/07 07:54:20;;;;;;;2.63;1.80;;;20.60;96.10;;;;;;5012153;28;20026;-40
2023/07/07 07:56:46;;;;;;;2.15;1.80;;;20.60;96.10;;;;;;5012368;28;20454;-40
2023/07/07 07:59:12;;;;;;;2.38;1.70;;;20.60;96.10;;;;;;5012732;28;20108;-40
2023/07/07 08:01:38;;;;;;;2.47;1.80;;;20.60;96.10;;;;;;5012131;28;20023;-39
2023/07/07 08:04:05;;;;;;;2.17;1.73;;;20.60;96.10;;;;;;5011978;28;20029;-38
2023/07/07 08:06:31;;;;;;;3.47;1.92;;;20.60;96.10;;;;;;5012047;28;20033;-39
2023/07/07 08:08:56;;;;;;;5.85;1.80;;;20.60;96.10;;;;;;5012644;28;20476;-39
2023/07/07 08:11:48;;;;;;;5.28;2.30;;;20.60;96.10;;;;;;5011880;28;20041;-40
2023/07/07 08:14:15;;;;;;;4.80;3.10;;;20.70;96.30;;;;;;5012597;28;20486;-40
2023/07/07 08:16:40;;;;;;;8.43;3.70;;;20.70;96.30;;;;;;5013197;28;20478;-39
2023/07/07 08:19:07;;;;;;;6.68;3.30;;;20.70;96.30;;;;;;5011482;28;20066;-40
2023/07/07 08:21:33;;;;;;;5.70;3.38;;;20.70;96.30;;;;;;5012146;28;20456;-40
2023/07/07 08:23:59;;;;;;;6.25;2.97;;;20.70;96.30;;;;;;5011643;28;20022;-40
2023/07/07 08:26:24;;;;;;;3.53;3.22;;;20.70;96.40;;;;;;5011668;28;20026;-39
2023/07/07 08:28:50;;;;;;;5.72;3.25;;;20.70;96.40;;;;;;5012359;28;20037;-39
2023/07/07 08:31:16;;;;;;;8.15;3.47;;;20.70;96.40;;;;;;5011615;28;20029;-40
2023/07/07 08:33:43;;;;;;;4.80;3.17;;;20.70;96.40;;;;;;5011685;28;20080;-40
2023/07/07 08:36:09;;;;;;;5.20;3.45;;;20.70;96.40;;;;;;5011686;28;20021;-40
2023/07/07 08:38:35;;;;;;;4.88;3.42;;;20.70;96.40;;;;;;5011669;28;20420;-40
2023/07/07 08:41:01;;;;;;;4.95;3.40;;;20.70;96.40;;;;;;5011273;28;20478;-39
2023/07/07 08:43:29;;;;;;;3.97;3.25;;;20.70;96.40;;;;;;5011703;28;20037;-37
2023/07/07 08:46:20;;;;;;;4.22;3.10;;;20.70;96.40;;;;;;5011502;28;20520;-40
2023/07/07 08:49:04;;;;;;;5.50;2.90;;;20.70;96.40;;;;;;5012302;28;20033;-41
2023/07/07 08:51:54;;;;;;;4.82;3.03;;;20.70;96.40;;;;;;5012294;28;20032;-39
2023/07/07 08:54:57;;;;;;;4.30;3.10;;;20.70;96.40;;;;;;5012298;28;20105;-40
2023/07/07 08:57:28;;;;;;;4.88;2.90;;;20.70;96.40;;;;;;5002169;28;20084;-39
2023/07/07 08:59:54;;;;;;;6.07;3.10;;;20.70;96.40;;;;;;5011168;28;20030;-39
2023/07/07 09:02:28;;;;;;;5.57;3.42;;;20.70;96.40;;;;;;5011409;28;20053;-39
2023/07/07 09:05:00;;;;;;;3.97;2.90;;;20.70;96.40;;;;;;5011313;28;20030;-38
2023/07/07 09:08:05;;;;;;;4.90;3.03;;;20.70;96.40;;;;;;5011453;28;20030;-38
2023/07/07 09:10:35;;;;;;;3.30;2.75;;;20.70;96.40;;;;;;5015123;28;20018;-40
2023/07/07 09:13:17;;;;;;;4.20;3.05;;;20.70;96.40;;;;;;5015248;28;20045;-39
2023/07/07 09:15:54;;;;;;;3.95;2.97;;;20.70;96.40;;;;;;5015170;28;20017;-41
2023/07/07 09:18:33;;;;;;;4.97;2.97;;;20.70;96.40;;;;;;5015206;28;20107;-40
2023/07/07 09:21:03;;;;;;;5.85;3.25;;;20.70;96.40;;;;;;5014896;28;20041;-39
2023/07/07 09:23:36;;;;;;;3.45;2.40;;;20.70;96.40;;;;;;5016449;28;20030;-39
2023/07/07 09:26:32;;;;;;;4.10;3.00;;;20.70;96.40;;;;;;5015157;28;20499;-39
2023/07/07 09:28:59;;;;;;;3.72;2.95;;;20.70;96.40;;;;;;5016116;28;20026;-40
2023/07/07 09:31:38;;;;;;;3.90;2.67;;;20.70;96.40;;;;;;5014869;28;20026;-38
2023/07/07 09:34:07;;;;;;;5.65;3.10;;;20.80;96.50;;;;;;5015458;28;20026;-38
2023/07/07 09:36:41;;;;;;;5.50;3.22;;;20.80;96.40;;;;;;5015036;28;20432;-39
2023/07/07 09:39:35;;;;;;;4.45;2.95;;;20.80;96.40;;;;;;5015717;28;20437;-40
2023/07/07 09:42:08;;;;;;;4.25;2.88;;;20.70;96.40;;;;;;5014781;28;20385;-40
2023/07/07 09:44:52;;;;;;;4.07;2.50;;;20.70;96.40;;;;;;5014787;28;20029;-40
2023/07/07 09:47:24;;;;;;;4.43;3.15;;;20.80;96.40;;;;;;5015472;28;20037;-40
2023/07/07 09:50:07;;;;;;;4.50;2.83;;;20.80;96.40;;;;;;5014451;28;20030;-39
2023/07/07 09:52:36;;;;;;;3.97;3.10;;;20.80;96.40;;;;;;5015790;28;20026;-39
2023/07/07 09:55:14;;;;;;;4.18;2.90;;;20.80;96.40;;;;;;5014230;28;20030;-39
2023/07/07 09:57:46;;;;;;;5.90;3.33;;;20.80;96.30;;;;;;5015762;28;20017;-39
2023/07/07 10:00:17;;;;;;;4.43;3.20;;;20.80;96.30;;;;;;5014167;28;20585;-39
2023/07/07 10:02:45;;;;;;;4.45;3.33;;;20.80;96.30;;;;;;5014387;28;20113;-40
2023/07/07 10:05:15;;;;;;;5.30;3.08;;;20.80;96.30;;;;;;5014303;28;20026;-40
2023/07/07 10:07:41;;;;;;;4.03;2.97;;;20.80;96.30;;;;;;5014418;28;20105;-40
2023/07/07 10:10:13;;;;;;;4.63;3.67;;;20.80;96.30;;;;;;5014596;28;20105;-41
2023/07/07 10:12:40;;;;;;;4.68;3.33;;;20.80;96.30;;;;;;5015375;28;20380;-39
2023/07/07 10:15:34;;;;;;;5.35;3.55;;;20.80;96.30;;;;;;5014111;28;20030;-40
2023/07/07 10:18:22;;;;;;;4.20;3.30;;;20.80;96.30;;;;;;5014034;28;20018;-39
2023/07/07 10:20:48;;;;;;;4.43;3.10;;;20.80;96.30;;;;;;5013009;28;20048;-40
2023/07/07 10:23:14;;;;;;;4.05;3.38;;;20.80;96.30;;;;;;5013905;28;20026;-41
2023/07/07 10:25:44;;;;;;;4.85;3.67;;;20.80;96.30;;;;;;5013830;28;20029;-40
2023/07/07 10:28:14;;;;;;;4.20;3.20;;;20.80;96.30;;;;;;5014005;28;20034;-40
2023/07/07 10:30:41;;;;;;;4.53;3.40;;;20.80;96.30;;;;;;5013479;28;20143;-41
2023/07/07 10:33:13;;;;;;;5.10;3.42;;;20.80;96.30;;;;;;5014260;28;20465;-40
2023/07/07 10:35:39;;;;;;;4.20;3.42;;;20.80;96.30;;;;;;5015359;28;20026;-40
2023/07/07 10:38:05;;;;;;;4.45;3.25;;;20.80;96.30;;;;;;5014031;28;20018;-39
2023/07/07 10:40:32;;;;;;;4.72;3.60;;;20.80;96.30;;;;;;5014404;28;20080;-39
2023/07/07 10:42:58;;;;;;;4.80;3.30;;;20.80;96.30;;;;;;5013641;28;20018;-39
2023/07/07 10:45:24;;;;;;;5.18;3.78;;;20.90;96.30;;;;;;5013519;28;20026;-37
2023/07/07 10:47:51;;;;;;;4.13;3.20;;;20.90;96.30;;;;;;5013600;28;20374;-39
2023/07/07 10:50:22;;;;;;;6.45;3.22;;;20.90;96.30;;;;;;5013195;28;20033;-38
2023/07/07 10:53:15;;;;;;;3.80;3.17;;;20.90;96.30;;;;;;5013732;28;20018;-38
2023/07/07 10:55:47;;;;;;;5.07;3.55;;;20.90;96.30;;;;;;5014232;28;20033;-40
2023/07/07 10:58:30;;;;;;;6.43;3.88;;;20.90;96.30;;;;;;5014781;28;20100;-39
2023/07/07 11:01:05;;;;;;;6.95;4.00;;;20.90;96.30;;;;;;5013022;28;20461;-39
2023/07/07 11:03:57;;;;;;;5.10;3.58;;;20.90;96.30;;;;;;5013286;28;20642;-39
2023/07/07 11:06:23;;;;;;;5.25;3.72;;;20.90;96.30;;;;;;5005156;28;20046;-40
2023/07/07 11:09:13;;;;;;;5.85;3.60;;;20.90;96.30;;;;;;5012820;28;20030;-39
2023/07/07 11:11:58;;;;;;;4.85;3.80;;;20.90;96.30;;;;;;5013130;28;20026;-42
2023/07/07 11:15:10;;;;;;;5.82;3.88;;;20.90;96.30;;;;;;5013256;28;20057;-40
2023/07/07 11:17:47;;;;;;;5.47;3.70;;;20.90;96.30;;;;;;4999884;28;20070;-40
2023/07/07 11:20:25;;;;;;;6.43;3.67;;;20.90;96.30;;;;;;5012684;28;20045;-40
2023/07/07 11:23:09;;;;;;;5.10;3.65;;;20.90;96.30;;;;;;5013049;28;20117;-39
2023/07/07 11:25:52;;;;;;;5.35;3.95;;;21.00;96.30;;;;;;5013415;28;20065;-38
2023/07/07 11:28:46;;;;;;;5.57;3.88;;;21.00;96.30;;;;;;5012898;28;20040;-39
2023/07/07 11:31:30;;;;;;;5.03;4.05;;;21.00;96.30;;;;;;5012518;28;20072;-39
2023/07/07 11:34:13;;;;;;;5.65;4.15;;;21.00;96.30;;;;;;5012065;28;20073;-40
2023/07/07 11:37:12;;;;;;;5.57;3.95;;;21.00;96.30;;;;;;5013206;28;20470;-40
2023/07/07 11:39:56;;;;;;;4.75;3.70;;;21.00;96.30;;;;;;5012360;28;20030;-39
2023/07/07 11:43:02;;;;;;;5.75;4.45;;;21.00;96.30;;;;;;5012447;28;20092;-39
2023/07/07 11:45:58;;;;;;;7.38;4.13;;;21.00;96.30;;;;;;5012969;28;20034;-40
2023/07/07 11:49:02;;;;;;;5.72;4.13;;;21.00;96.30;;;;;;5012427;28;20040;-40
2023/07/07 11:52:06;;;;;;;5.73;4.27;;;21.00;96.30;;;;;;5012466;28;20029;-40
2023/07/07 11:54:50;;;;;;;6.10;4.20;;;21.00;96.30;;;;;;5012766;28;20476;-39
2023/07/07 11:57:44;;;;;;;5.40;4.30;;;21.00;96.30;;;;;;5012734;28;20082;-40
2023/07/07 12:00:23;;;;;;;5.30;3.95;;;21.00;96.30;;;;;;5012387;28;20022;-39
2023/07/07 12:03:15;;;;;;;5.35;4.22;;;21.00;96.30;;;;;;5012877;28;20535;-39
2023/07/07 12:05:41;;;;;;;5.10;4.13;;;21.00;96.30;;;;;;5012432;28;20034;-39
2023/07/07 12:08:16;;;;;;;7.40;4.50;;;21.00;96.30;;;;;;5012045;28;20105;-40
2023/07/07 12:10:46;;;;;;;6.03;4.25;;;21.10;96.30;;;;;;5012319;28;20511;-39
2023/07/07 12:13:25;;;;;;;5.90;4.15;;;21.00;96.30;;;;;;5012009;28;20037;-40
2023/07/07 12:16:19;;;;;;;6.03;3.78;;;21.00;96.30;;;;;;5011998;28;20021;-40
2023/07/07 12:18:49;;;;;;;7.75;4.25;;;21.00;96.30;;;;;;5006407;28;20042;-40
2023/07/07 12:21:26;;;;;;;5.72;4.40;;;21.10;96.30;;;;;;5011709;28;20348;-40
2023/07/07 12:24:11;;;;;;;5.35;4.15;;;21.10;96.30;;;;;;5011656;28;20433;-39
2023/07/07 12:26:44;;;;;;;6.40;4.25;;;21.10;96.30;;;;;;5012503;28;20397;-40
2023/07/07 12:29:13;;;;;;;5.07;3.80;;;21.10;96.30;;;;;;5011474;28;20034;-39
2023/07/07 12:31:39;;;;;;;6.18;4.03;;;21.10;96.30;;;;;;5012200;28;20041;-40
2023/07/07 12:34:34;;;;;;;5.82;4.53;;;21.10;96.70;;;;;;5011621;28;20374;-40
2023/07/07 12:37:00;;;;;;;5.68;3.83;;;21.10;96.30;;;;;;5012077;28;20504;-40
2023/07/07 12:39:26;;;;;;;6.30;4.60;;;21.10;96.30;;;;;;5011369;28;20025;-39
2023/07/07 12:41:53;;;;;;;5.78;4.05;;;21.10;96.30;;;;;;5011916;28;20114;-39
2023/07/07 12:44:19;;;;;;;7.47;4.70;;;21.10;96.30;;;;;;5011232;28;20034;-40
2023/07/07 12:46:44;;;;;;;6.63;4.10;;;21.10;96.30;;;;;;5010149;28;20072;-40
2023/07/07 12:49:23;;;;;;;6.15;4.38;;;21.10;96.30;;;;;;5011841;28;20081;-38
2023/07/07 12:51:58;;;;;;;5.53;4.40;;;21.10;96.30;;;;;;5011492;28;20026;-39
2023/07/07 12:54:35;;;;;;;5.20;3.97;;;21.10;96.30;;;;;;5010782;28;20053;-39
2023/07/07 12:57:22;;;;;;;6.10;4.13;;;21.10;96.30;;;;;;5011482;28;20018;-39
2023/07/07 12:59:48;;;;;;;5.75;4.45;;;21.10;96.30;;;;;;5011120;28;20049;-41
2023/07/07 13:02:18;;;;;;;6.50;4.63;;;21.10;96.30;;;;;;5011398;28;20509;-40
2023/07/07 13:04:50;;;;;;;6.40;4.63;;;21.10;96.30;;;;;;5011656;28;20386;-40
2023/07/07 13:07:27;;;;;;;6.43;4.63;;;21.10;96.30;;;;;;5012203;28;20494;-38